Terminal Aerodrome Forecast
Issued by NWS Caribou, ME

Home | Current Version | Previous Version | Text Only | Print | Product List | Glossary On
Versions: 1 2 3 4 5 6 7 8 9 10 11 12 13 14 15 16 17 18 19 20 21
000
FTUS41 KCAR 301700
TAFCAR
TAF
KCAR 301732Z 3018/0118 00000KT P6SM -DZ OVC007
     FM302200 00000KT P6SM BKN020
     FM010100 00000KT P6SM BKN030
     FM010300 VRB03KT P6SM BKN025
     FM010500 01004KT P6SM BKN015
     FM010700 01004KT P6SM BKN003=

USA.gov is the U.S. government's official web portal to all federal, state and local government web resources and services.